Time;durP1;ratioP1;P1;durP2;ratioP2;P2;SDS_P1;SDS_P2;PMS_P1;PMS_P2;Temp;Humidity;BMP_temperature;BMP_pressure;BME280_temperature;BME280_humidity;BME280_pressure;Samples;Min_cycle;Max_cycle;Signal;HPM_P1;HPM_P2
2024/03/26 00:01:07;;;;;;;7.18;1.90;;;24.90;38.10;;;;;;5008454;28;20080;-49
2024/03/26 00:03:34;;;;;;;12.00;2.08;;;24.90;37.90;;;;;;5009216;28;20070;-50
2024/03/26 00:06:00;;;;;;;5.43;1.90;;;24.80;37.80;;;;;;5008460;28;20086;-48
2024/03/26 00:08:26;;;;;;;11.40;2.05;;;24.30;38.60;;;;;;5009275;28;20208;-50
2024/03/26 00:10:53;;;;;;;5.80;1.75;;;24.50;38.60;;;;;;5008360;28;20570;-48
2024/03/26 00:13:19;;;;;;;9.18;2.20;;;24.50;38.70;;;;;;5008235;28;20078;-51
2024/03/26 00:15:46;;;;;;;16.15;2.30;;;24.50;39.00;;;;;;4989558;28;20074;-51
2024/03/26 00:18:12;;;;;;;7.57;1.92;;;24.40;39.40;;;;;;5008073;28;20098;-47
2024/03/26 00:20:43;;;;;;;9.20;2.28;;;24.10;40.00;;;;;;5007555;28;20513;-48
2024/03/26 00:23:12;;;;;;;11.02;2.20;;;24.10;39.70;;;;;;4989852;28;20165;-51
2024/03/26 00:25:39;;;;;;;5.00;1.70;;;24.10;40.00;;;;;;5007854;28;20086;-55
2024/03/26 00:28:05;;;;;;;8.52;1.77;;;24.00;39.70;;;;;;5008137;28;20071;-51
2024/03/26 00:30:32;;;;;;;17.02;2.75;;;23.80;40.20;;;;;;4990886;28;20471;-49
2024/03/26 00:32:59;;;;;;;20.98;2.33;;;23.70;40.70;;;;;;5008792;28;20102;-49
2024/03/26 00:35:25;;;;;;;13.55;2.53;;;23.40;41.50;;;;;;5007830;28;20078;-49
2024/03/26 00:37:51;;;;;;;18.80;2.70;;;23.20;41.90;;;;;;5006204;28;20114;-50
2024/03/26 00:40:18;;;;;;;5.90;2.13;;;23.10;42.20;;;;;;5006858;28;20089;-50
2024/03/26 00:42:44;;;;;;;18.25;3.13;;;23.00;42.10;;;;;;4989911;28;20074;-49
2024/03/26 00:45:11;;;;;;;9.20;2.58;;;23.10;42.40;;;;;;5006649;28;20071;-50
2024/03/26 00:47:37;;;;;;;13.60;2.67;;;23.00;42.90;;;;;;5008966;28;20071;-49
2024/03/26 00:50:04;;;;;;;10.25;2.67;;;22.90;43.60;;;;;;5008741;28;20074;-49
2024/03/26 00:52:30;;;;;;;10.45;2.35;;;22.80;43.10;;;;;;5007820;28;20110;-51
2024/03/26 00:54:56;;;;;;;18.40;2.80;;;22.70;43.30;;;;;;5008751;28;20173;-47
2024/03/26 00:57:23;;;;;;;15.45;2.38;;;22.40;44.20;;;;;;5008148;28;20568;-48
2024/03/26 00:59:49;;;;;;;11.13;2.47;;;22.30;44.10;;;;;;5008054;28;20496;-51
2024/03/26 01:02:16;;;;;;;14.75;2.97;;;22.20;44.60;;;;;;4990755;28;20158;-49
2024/03/26 01:04:42;;;;;;;14.43;3.03;;;22.10;45.20;;;;;;5008059;28;20608;-51
2024/03/26 01:07:09;;;;;;;11.18;2.97;;;22.00;45.40;;;;;;5008011;28;20153;-49
2024/03/26 01:09:35;;;;;;;13.90;2.83;;;22.00;45.80;;;;;;5006259;28;20101;-49
2024/03/26 01:12:01;;;;;;;9.70;2.47;;;21.80;46.30;;;;;;5008591;28;20575;-51
2024/03/26 01:14:28;;;;;;;10.82;2.80;;;21.60;46.60;;;;;;5008071;28;20121;-53
2024/03/26 01:16:55;;;;;;;11.35;2.70;;;21.60;46.90;;;;;;5007997;28;20118;-49
2024/03/26 01:19:22;;;;;;;13.90;3.60;;;21.60;46.80;;;;;;5007807;28;20421;-49
2024/03/26 01:21:48;;;;;;;18.80;3.00;;;21.50;46.90;;;;;;5008406;28;20066;-47
2024/03/26 01:24:15;;;;;;;14.38;3.13;;;21.60;47.00;;;;;;4990818;28;20085;-53
2024/03/26 01:26:41;;;;;;;19.42;3.15;;;21.50;47.30;;;;;;5007313;28;20536;-47
2024/03/26 01:29:08;;;;;;;14.38;2.95;;;21.50;47.50;;;;;;5006698;28;20640;-51
2024/03/26 01:31:35;;;;;;;15.23;2.60;;;21.40;47.70;;;;;;5011392;28;20101;-50
2024/03/26 01:34:01;;;;;;;24.77;2.90;;;21.20;48.70;;;;;;5012356;28;20172;-54
2024/03/26 01:36:28;;;;;;;23.70;2.63;;;21.10;48.00;;;;;;4994078;28;20113;-48
2024/03/26 01:38:54;;;;;;;19.00;3.92;;;21.10;47.90;;;;;;5011167;28;20122;-55
2024/03/26 01:41:20;;;;;;;16.20;3.28;;;20.90;48.10;;;;;;4994204;28;20133;-49
2024/03/26 01:43:47;;;;;;;12.10;3.00;;;20.70;48.50;;;;;;5011052;28;20141;-49
2024/03/26 01:46:14;;;;;;;16.05;2.88;;;20.70;48.70;;;;;;5010453;28;20090;-50
2024/03/26 01:48:40;;;;;;;13.45;2.65;;;20.60;49.00;;;;;;5009614;28;20074;-47
2024/03/26 01:51:07;;;;;;;13.32;2.90;;;20.60;48.40;;;;;;5010580;28;20538;-56
2024/03/26 01:53:34;;;;;;;15.43;2.55;;;20.60;48.60;;;;;;5011242;28;20078;-50
2024/03/26 01:56:01;;;;;;;15.65;3.17;;;20.60;48.40;;;;;;5009634;28;20161;-48
2024/03/26 01:58:28;;;;;;;14.75;2.28;;;20.60;48.10;;;;;;4992157;28;20108;-52
2024/03/26 02:00:57;;;;;;;12.52;2.50;;;20.60;48.60;;;;;;5011967;28;20540;-49
2024/03/26 02:03:24;;;;;;;14.32;2.40;;;20.60;48.10;;;;;;5010484;28;20154;-57
2024/03/26 02:05:51;;;;;;;9.10;2.38;;;20.50;48.10;;;;;;5011533;28;20268;-48
2024/03/26 02:08:17;;;;;;;12.77;2.78;;;20.40;48.10;;;;;;5011248;28;20591;-49
2024/03/26 02:10:44;;;;;;;14.77;2.67;;;20.40;48.50;;;;;;5010622;28;20149;-51
2024/03/26 02:13:11;;;;;;;11.07;3.03;;;20.40;48.70;;;;;;5011425;28;20078;-51
2024/03/26 02:15:37;;;;;;;10.88;2.70;;;20.30;48.80;;;;;;5010637;28;20071;-54
2024/03/26 02:18:04;;;;;;;17.75;3.22;;;20.20;49.60;;;;;;5011370;28;20102;-50
2024/03/26 02:20:30;;;;;;;11.85;2.22;;;20.10;49.30;;;;;;5010277;28;20066;-53
2024/03/26 02:22:57;;;;;;;13.63;2.42;;;20.00;49.30;;;;;;5011057;28;20086;-48
2024/03/26 02:25:23;;;;;;;10.20;2.20;;;20.00;49.40;;;;;;4992586;28;20528;-48
2024/03/26 02:27:50;;;;;;;14.40;3.22;;;19.90;49.40;;;;;;4990911;28;20082;-60
2024/03/26 02:30:17;;;;;;;9.80;2.60;;;19.80;49.60;;;;;;5008780;28;20181;-55
2024/03/26 02:32:43;;;;;;;17.80;3.03;;;19.80;49.80;;;;;;4990510;28;20074;-51
2024/03/26 02:35:10;;;;;;;14.20;2.70;;;19.80;50.10;;;;;;5008388;28;20086;-49
2024/03/26 02:37:37;;;;;;;13.20;2.70;;;19.70;51.00;;;;;;5008103;28;20201;-56
2024/03/26 02:40:04;;;;;;;15.00;3.15;;;19.60;50.90;;;;;;5009686;28;20869;-50
2024/03/26 02:42:31;;;;;;;7.72;2.60;;;19.60;51.30;;;;;;5010179;28;20528;-48
2024/03/26 02:44:57;;;;;;;9.68;2.33;;;19.50;51.30;;;;;;4991411;28;20101;-53
2024/03/26 02:47:23;;;;;;;21.58;3.17;;;19.50;52.00;;;;;;5008958;28;20739;-47
2024/03/26 02:49:50;;;;;;;11.80;2.22;;;19.30;53.00;;;;;;4991225;28;20113;-58
2024/03/26 02:52:16;;;;;;;14.35;2.80;;;19.20;54.30;;;;;;5009956;28;20173;-58
2024/03/26 02:54:43;;;;;;;16.75;3.33;;;19.00;54.80;;;;;;4987578;28;20158;-55
2024/03/26 02:57:09;;;;;;;19.80;9.95;;;18.90;55.10;;;;;;4990254;28;20502;-48
2024/03/26 02:59:36;;;;;;;9.65;2.60;;;18.90;55.40;;;;;;5007601;28;20557;-49
2024/03/26 03:02:02;;;;;;;10.90;2.75;;;18.90;55.40;;;;;;5007167;28;20070;-58
2024/03/26 03:04:29;;;;;;;15.40;2.45;;;18.80;55.40;;;;;;5007824;28;20094;-52
2024/03/26 03:06:55;;;;;;;14.13;2.85;;;18.80;55.30;;;;;;5005782;28;20112;-51
2024/03/26 03:09:22;;;;;;;12.13;2.70;;;18.80;55.20;;;;;;5006160;28;20074;-52
2024/03/26 03:11:49;;;;;;;21.33;3.28;;;18.80;55.40;;;;;;5007347;28;20085;-58
2024/03/26 03:14:15;;;;;;;11.00;2.78;;;18.80;55.10;;;;;;5004621;28;20078;-59
2024/03/26 03:16:42;;;;;;;15.40;2.67;;;18.70;55.40;;;;;;5006355;28;20121;-47
2024/03/26 03:19:08;;;;;;;12.95;3.25;;;18.60;55.70;;;;;;5008566;28;20540;-52
2024/03/26 03:21:35;;;;;;;13.88;2.75;;;18.50;55.70;;;;;;4988153;28;20085;-49
2024/03/26 03:24:01;;;;;;;12.60;2.70;;;18.50;55.70;;;;;;5007381;28;20070;-50
2024/03/26 03:26:28;;;;;;;17.40;2.70;;;18.50;55.80;;;;;;5006498;28;20537;-52
2024/03/26 03:28:54;;;;;;;13.20;2.70;;;18.50;55.70;;;;;;4987661;28;20082;-54
2024/03/26 03:31:21;;;;;;;17.27;2.72;;;18.40;55.70;;;;;;5006566;28;20104;-47
2024/03/26 03:33:48;;;;;;;7.88;2.67;;;18.40;55.60;;;;;;5006102;28;20098;-54
2024/03/26 03:36:14;;;;;;;9.60;2.35;;;18.30;55.60;;;;;;5005423;28;20492;-53
2024/03/26 03:38:41;;;;;;;17.10;2.50;;;18.20;56.20;;;;;;5005857;28;20121;-52
2024/03/26 03:41:07;;;;;;;15.63;3.35;;;18.10;56.30;;;;;;5006353;28;20070;-53
2024/03/26 03:43:34;;;;;;;20.13;2.83;;;18.10;56.50;;;;;;4984912;28;20105;-53
2024/03/26 03:46:01;;;;;;;13.95;2.60;;;18.00;56.70;;;;;;5006416;28;20154;-50
2024/03/26 03:48:27;;;;;;;13.95;3.42;;;18.00;56.90;;;;;;5007276;28;20097;-53
2024/03/26 03:50:53;;;;;;;8.68;2.55;;;18.00;57.20;;;;;;5006334;28;20161;-49
2024/03/26 03:53:20;;;;;;;14.75;3.47;;;18.00;57.20;;;;;;5003988;28;20086;-54
2024/03/26 03:55:47;;;;;;;16.02;3.08;;;18.00;57.00;;;;;;5006352;28;20066;-57
2024/03/26 03:58:14;;;;;;;16.88;2.70;;;18.00;56.80;;;;;;5005215;28;20152;-50
2024/03/26 04:00:41;;;;;;;11.48;3.35;;;18.00;56.80;;;;;;5005945;28;20075;-55
2024/03/26 04:03:07;;;;;;;12.70;3.03;;;17.90;57.10;;;;;;5007612;28;20070;-54
2024/03/26 04:05:37;;;;;;;15.93;3.85;;;17.90;57.30;;;;;;5006947;28;20071;-62
2024/03/26 04:08:04;;;;;;;17.70;3.10;;;17.90;57.80;;;;;;4988071;28;20164;-51
2024/03/26 04:10:31;;;;;;;14.88;3.53;;;17.90;58.20;;;;;;5005360;28;20097;-55
2024/03/26 04:12:58;;;;;;;15.63;3.15;;;17.80;58.20;;;;;;5007292;28;20081;-57
2024/03/26 04:15:24;;;;;;;10.23;2.90;;;17.80;58.10;;;;;;5005380;28;20086;-58
2024/03/26 04:17:51;;;;;;;15.13;2.97;;;17.70;58.10;;;;;;4987463;28;20148;-53
2024/03/26 04:20:19;;;;;;;13.82;3.20;;;17.70;57.90;;;;;;5005319;28;20075;-51
2024/03/26 04:22:49;;;;;;;10.05;3.17;;;17.70;57.90;;;;;;5006919;28;20082;-54
2024/03/26 04:25:16;;;;;;;11.40;3.03;;;17.70;57.70;;;;;;5005360;28;20563;-54
2024/03/26 04:27:42;;;;;;;13.52;3.08;;;17.70;57.70;;;;;;5007078;28;20088;-52
2024/03/26 04:30:09;;;;;;;14.32;2.80;;;17.60;57.40;;;;;;5006596;28;20077;-52
2024/03/26 04:32:36;;;;;;;11.15;3.47;;;17.60;56.90;;;;;;5004510;28;20063;-52
2024/03/26 04:35:03;;;;;;;15.82;2.75;;;17.60;56.90;;;;;;4989071;28;20089;-50
2024/03/26 04:37:29;;;;;;;10.32;2.83;;;17.60;56.80;;;;;;5004631;28;20137;-53
2024/03/26 04:39:56;;;;;;;11.15;2.45;;;17.60;56.40;;;;;;5005890;28;20078;-50
2024/03/26 04:42:23;;;;;;;14.57;2.78;;;17.60;56.40;;;;;;5006972;28;20086;-49
2024/03/26 04:44:50;;;;;;;14.75;2.65;;;17.60;56.10;;;;;;5003884;28;20075;-54
2024/03/26 04:47:16;;;;;;;17.67;2.70;;;17.60;55.90;;;;;;5005734;28;20090;-49
2024/03/26 04:49:43;;;;;;;11.13;3.17;;;17.60;55.70;;;;;;4969542;28;20078;-48
2024/03/26 04:52:09;;;;;;;8.50;2.88;;;17.60;55.40;;;;;;5001816;28;20091;-54
2024/03/26 04:54:36;;;;;;;17.55;3.30;;;17.60;55.20;;;;;;5003821;28;20085;-49
2024/03/26 04:57:02;;;;;;;12.27;3.45;;;17.60;55.10;;;;;;5005803;28;20572;-50
2024/03/26 04:59:29;;;;;;;11.55;3.50;;;17.50;55.00;;;;;;5006836;28;20093;-49
2024/03/26 05:01:55;;;;;;;14.48;2.80;;;17.50;55.00;;;;;;5006870;28;20082;-52
2024/03/26 05:04:21;;;;;;;8.73;3.20;;;17.50;55.10;;;;;;4985610;28;20081;-51
2024/03/26 05:06:48;;;;;;;10.50;2.97;;;17.50;55.10;;;;;;4988375;28;20125;-52
2024/03/26 05:09:14;;;;;;;11.75;2.95;;;17.50;55.20;;;;;;5010299;28;20165;-53
2024/03/26 05:11:41;;;;;;;11.55;3.10;;;17.50;55.30;;;;;;5008997;28;20529;-52
2024/03/26 05:14:07;;;;;;;11.98;2.70;;;17.50;56.10;;;;;;5007400;28;20097;-55
2024/03/26 05:16:34;;;;;;;8.25;2.90;;;17.40;55.80;;;;;;5009931;28;20110;-47
2024/03/26 05:19:00;;;;;;;13.90;12.65;;;17.40;56.00;;;;;;5006208;28;20078;-50
2024/03/26 05:21:26;;;;;;;21.70;17.00;;;17.40;56.30;;;;;;5008955;28;20440;-47
2024/03/26 05:23:53;;;;;;;24.00;21.42;;;17.40;56.60;;;;;;5009083;28;20078;-50
2024/03/26 05:26:19;;;;;;;26.60;21.88;;;17.40;56.70;;;;;;5009070;28;20071;-51
2024/03/26 05:28:46;;;;;;;25.50;23.10;;;17.40;56.80;;;;;;5008317;28;20548;-47
2024/03/26 05:31:19;;;;;;;16.13;7.60;;;17.30;57.00;;;;;;5008726;28;20547;-48
2024/03/26 05:33:47;;;;;;;16.27;2.85;;;17.30;57.30;;;;;;5008864;28;20090;-49
2024/03/26 05:36:15;;;;;;;13.85;2.90;;;17.20;57.30;;;;;;5007901;28;20082;-49
2024/03/26 05:38:42;;;;;;;9.05;2.72;;;17.20;56.90;;;;;;4988057;28;20180;-48
2024/03/26 05:41:09;;;;;;;11.32;2.80;;;17.30;56.70;;;;;;5007817;28;20079;-53
2024/03/26 05:43:36;;;;;;;21.42;4.55;;;17.20;56.70;;;;;;5007855;28;20082;-48
2024/03/26 05:46:03;;;;;;;22.48;9.80;;;17.30;56.80;;;;;;5008199;28;20433;-46
2024/03/26 05:48:29;;;;;;;19.38;13.25;;;17.30;56.40;;;;;;5007664;28;20090;-46
2024/03/26 05:50:55;;;;;;;26.83;15.45;;;17.30;55.90;;;;;;5010335;28;20086;-52
2024/03/26 05:53:22;;;;;;;12.52;2.47;;;17.30;55.50;;;;;;5008933;28;20124;-52
2024/03/26 05:55:48;;;;;;;10.48;2.60;;;17.30;55.40;;;;;;5008337;28;20125;-48
2024/03/26 05:58:15;;;;;;;14.85;2.80;;;17.30;55.20;;;;;;5007669;28;20098;-47
2024/03/26 06:00:41;;;;;;;12.85;2.58;;;17.30;55.00;;;;;;5008593;28;20067;-47
2024/03/26 06:03:08;;;;;;;12.93;3.88;;;17.20;54.80;;;;;;5008801;28;20101;-55
2024/03/26 06:05:35;;;;;;;10.02;2.85;;;17.20;54.80;;;;;;5006596;28;20125;-46
2024/03/26 06:08:01;;;;;;;13.00;3.22;;;17.10;54.90;;;;;;5006309;28;20082;-52
2024/03/26 06:10:28;;;;;;;23.00;11.60;;;17.10;54.60;;;;;;5005703;28;20062;-54
2024/03/26 06:12:54;;;;;;;11.27;2.67;;;17.10;54.40;;;;;;5007073;28;20078;-53
2024/03/26 06:15:21;;;;;;;9.32;2.55;;;17.10;54.60;;;;;;5006801;28;20093;-53
2024/03/26 06:17:47;;;;;;;11.02;2.45;;;17.10;54.30;;;;;;5004799;28;20102;-50
2024/03/26 06:20:14;;;;;;;11.57;2.20;;;17.10;54.20;;;;;;5008254;28;20467;-51
2024/03/26 06:22:40;;;;;;;9.38;2.15;;;17.10;54.30;;;;;;5007212;28;20074;-55
2024/03/26 06:25:07;;;;;;;14.38;7.00;;;17.20;54.50;;;;;;5006503;28;20153;-50
2024/03/26 06:27:33;;;;;;;11.65;3.80;;;17.10;55.10;;;;;;5007009;28;20102;-47
2024/03/26 06:30:00;;;;;;;9.35;2.42;;;17.10;54.70;;;;;;5005129;28;20500;-50
2024/03/26 06:32:27;;;;;;;10.63;2.40;;;17.00;54.70;;;;;;5008178;28;20084;-47
2024/03/26 06:34:53;;;;;;;12.65;2.60;;;17.10;54.90;;;;;;5008255;28;20109;-48
2024/03/26 06:37:20;;;;;;;12.02;2.42;;;17.00;54.90;;;;;;5006526;28;20339;-48
2024/03/26 06:39:46;;;;;;;15.43;2.58;;;17.00;55.00;;;;;;5008163;28;20388;-51
2024/03/26 06:42:12;;;;;;;8.85;2.22;;;17.00;55.00;;;;;;5007578;28;20136;-55
2024/03/26 06:44:39;;;;;;;9.63;2.80;;;17.00;54.80;;;;;;5007843;28;20074;-48
2024/03/26 06:47:05;;;;;;;12.75;2.28;;;17.00;54.80;;;;;;5007443;28;20077;-52
2024/03/26 06:49:32;;;;;;;12.48;2.50;;;16.90;54.70;;;;;;5008327;28;20121;-49
2024/03/26 06:51:58;;;;;;;7.43;2.25;;;17.00;54.70;;;;;;5007083;28;20081;-48
2024/03/26 06:54:25;;;;;;;15.07;2.88;;;17.00;54.90;;;;;;5007336;28;20441;-49
2024/03/26 06:56:51;;;;;;;9.65;2.35;;;16.90;55.10;;;;;;4987990;28;20106;-50
2024/03/26 06:59:18;;;;;;;17.50;2.78;;;16.90;55.60;;;;;;4989661;28;20101;-51
2024/03/26 07:01:45;;;;;;;21.50;2.80;;;16.90;55.60;;;;;;5008486;28;20537;-49
2024/03/26 07:04:11;;;;;;;11.70;2.53;;;16.90;55.90;;;;;;5007433;28;20081;-48
2024/03/26 07:06:38;;;;;;;14.68;2.85;;;16.90;56.10;;;;;;5007932;28;20074;-52
2024/03/26 07:09:04;;;;;;;10.60;2.53;;;16.80;56.20;;;;;;5006483;28;20079;-50
2024/03/26 07:11:32;;;;;;;11.82;3.20;;;16.90;56.40;;;;;;5007493;28;20078;-54
2024/03/26 07:13:58;;;;;;;12.40;2.92;;;16.90;56.60;;;;;;5006226;28;20090;-48
2024/03/26 07:16:25;;;;;;;11.20;2.75;;;16.90;57.00;;;;;;5007235;28;20101;-50
2024/03/26 07:18:51;;;;;;;8.82;2.75;;;16.90;57.00;;;;;;5007634;28;20081;-48
2024/03/26 07:21:18;;;;;;;10.35;2.25;;;16.80;57.20;;;;;;5006953;28;20083;-52
2024/03/26 07:23:44;;;;;;;15.43;3.03;;;16.80;57.50;;;;;;5006115;28;20078;-49
2024/03/26 07:26:11;;;;;;;10.80;2.58;;;16.70;57.60;;;;;;4990190;28;20160;-48
2024/03/26 07:28:38;;;;;;;8.50;2.17;;;16.70;57.80;;;;;;5005849;28;20436;-52
2024/03/26 07:31:04;;;;;;;10.80;2.67;;;16.80;57.80;;;;;;5006619;28;20509;-55
2024/03/26 07:33:31;;;;;;;6.32;2.17;;;16.70;57.70;;;;;;5002402;28;20085;-53
2024/03/26 07:35:57;;;;;;;10.18;3.03;;;16.80;57.50;;;;;;5006439;28;20070;-49
2024/03/26 07:38:24;;;;;;;12.27;3.13;;;16.80;57.20;;;;;;5004453;28;20213;-59
2024/03/26 07:40:50;;;;;;;10.02;3.08;;;16.80;57.20;;;;;;5006334;28;20117;-52
2024/03/26 07:43:17;;;;;;;6.60;2.40;;;16.80;57.40;;;;;;5006673;28;20066;-51
2024/03/26 07:45:43;;;;;;;12.77;3.03;;;16.80;57.50;;;;;;5005588;28;20078;-52
2024/03/26 07:48:10;;;;;;;13.20;2.85;;;16.70;57.70;;;;;;4987006;28;20074;-49
2024/03/26 07:50:36;;;;;;;10.77;2.67;;;16.70;58.00;;;;;;5006011;28;20094;-49
2024/03/26 07:53:03;;;;;;;10.90;2.50;;;16.60;58.00;;;;;;4986418;28;20578;-53
2024/03/26 07:55:30;;;;;;;12.88;2.58;;;16.50;58.10;;;;;;5005331;28;20086;-57
2024/03/26 07:57:56;;;;;;;13.55;2.90;;;16.50;57.70;;;;;;5002011;28;20106;-54
2024/03/26 08:00:23;;;;;;;9.15;2.75;;;16.60;58.00;;;;;;5007077;28;20545;-52
2024/03/26 08:02:49;;;;;;;12.18;2.80;;;16.50;58.10;;;;;;5006051;28;20555;-52
2024/03/26 08:05:16;;;;;;;12.95;2.97;;;16.50;58.30;;;;;;4988897;28;20075;-55
2024/03/26 08:07:43;;;;;;;15.95;3.00;;;16.40;58.30;;;;;;5006139;28;20074;-49
2024/03/26 08:10:09;;;;;;;15.32;3.00;;;16.40;58.40;;;;;;5006425;28;20111;-52
2024/03/26 08:12:36;;;;;;;10.18;2.60;;;16.30;58.40;;;;;;5004665;28;20145;-52
2024/03/26 08:15:03;;;;;;;11.50;2.72;;;16.30;58.40;;;;;;5005842;28;20086;-50
2024/03/26 08:17:31;;;;;;;9.80;2.20;;;16.60;58.30;;;;;;5004949;28;20106;-47
2024/03/26 08:19:57;;;;;;;9.88;2.53;;;16.60;57.70;;;;;;5007334;28;20074;-55
2024/03/26 08:22:24;;;;;;;22.45;2.85;;;16.80;57.60;;;;;;5005973;28;20070;-46
2024/03/26 08:24:50;;;;;;;10.05;2.92;;;16.80;57.30;;;;;;5005920;28;20078;-46
2024/03/26 08:27:17;;;;;;;10.35;2.80;;;17.00;57.20;;;;;;5005778;28;20129;-49
2024/03/26 08:29:44;;;;;;;12.32;3.05;;;17.10;56.70;;;;;;5006692;28;20079;-45
2024/03/26 08:32:10;;;;;;;9.00;2.65;;;17.10;56.70;;;;;;5004694;28;20074;-51
2024/03/26 08:34:38;;;;;;;10.75;2.70;;;17.10;56.50;;;;;;5006002;28;20086;-50
2024/03/26 08:37:05;;;;;;;11.13;2.85;;;17.10;56.40;;;;;;5004228;28;20106;-53
2024/03/26 08:39:32;;;;;;;6.82;2.50;;;17.10;56.20;;;;;;5005908;28;20110;-46
2024/03/26 08:41:58;;;;;;;10.55;2.53;;;17.30;55.90;;;;;;5007201;28;20160;-56
2024/03/26 08:44:24;;;;;;;5.32;2.33;;;17.40;56.40;;;;;;5005378;28;20110;-49
2024/03/26 08:46:51;;;;;;;10.18;2.42;;;17.30;55.80;;;;;;5004234;28;20124;-45
2024/03/26 08:49:17;;;;;;;7.53;2.38;;;17.10;56.70;;;;;;5005201;28;20113;-47
2024/03/26 08:51:44;;;;;;;10.13;2.75;;;17.10;56.20;;;;;;5007562;28;20078;-47
2024/03/26 08:54:11;;;;;;;11.30;3.20;;;17.00;56.30;;;;;;5004099;28;20564;-48
2024/03/26 08:56:37;;;;;;;6.72;2.60;;;16.80;56.70;;;;;;5005859;28;20098;-48
2024/03/26 08:59:04;;;;;;;9.68;2.92;;;16.70;57.00;;;;;;5005516;28;20070;-49
2024/03/26 09:01:30;;;;;;;11.88;2.65;;;16.60;57.30;;;;;;5005998;28;20074;-47
2024/03/26 09:03:57;;;;;;;10.18;2.53;;;16.50;57.70;;;;;;5004881;28;20113;-44
2024/03/26 09:06:24;;;;;;;8.55;2.35;;;16.40;57.90;;;;;;5006252;28;20074;-45
2024/03/26 09:08:50;;;;;;;7.90;2.60;;;16.40;58.20;;;;;;5005864;28;20093;-46
2024/03/26 09:11:18;;;;;;;9.27;2.67;;;16.40;58.50;;;;;;5004434;28;20511;-46
2024/03/26 09:13:44;;;;;;;7.53;3.30;;;16.50;58.90;;;;;;5005595;28;20457;-49
2024/03/26 09:16:11;;;;;;;11.70;2.92;;;16.40;58.70;;;;;;4987972;28;20082;-48
2024/03/26 09:18:37;;;;;;;8.18;2.50;;;16.30;58.80;;;;;;5005039;28;20133;-44
2024/03/26 09:21:04;;;;;;;18.00;3.30;;;16.40;58.90;;;;;;5004829;28;20106;-47
2024/03/26 09:23:31;;;;;;;14.05;3.67;;;16.20;59.10;;;;;;5005294;28;20082;-45
2024/03/26 09:25:57;;;;;;;9.10;2.60;;;16.20;59.20;;;;;;5004785;28;20075;-45
2024/03/26 09:28:24;;;;;;;12.27;3.15;;;16.20;59.40;;;;;;5005941;28;20078;-45
2024/03/26 09:30:53;;;;;;;15.35;3.67;;;16.20;59.90;;;;;;5004049;28;20529;-45
2024/03/26 09:33:20;;;;;;;12.35;3.00;;;16.40;59.40;;;;;;4988093;28;20088;-54
2024/03/26 09:35:47;;;;;;;14.88;3.60;;;16.30;59.40;;;;;;5005336;28;20079;-45
2024/03/26 09:38:13;;;;;;;13.57;3.78;;;16.30;59.70;;;;;;5005149;28;20161;-47
2024/03/26 09:40:43;;;;;;;12.15;4.18;;;16.20;59.70;;;;;;5004674;28;20091;-45
2024/03/26 09:43:11;;;;;;;13.00;3.70;;;16.20;59.80;;;;;;5002420;28;20452;-47
2024/03/26 09:45:38;;;;;;;15.25;3.80;;;16.10;59.80;;;;;;5006322;28;20081;-48
2024/03/26 09:48:08;;;;;;;9.80;3.40;;;16.10;60.10;;;;;;4988359;28;20082;-49
2024/03/26 09:50:36;;;;;;;11.63;3.47;;;16.10;60.50;;;;;;5004954;28;20533;-46
2024/03/26 09:53:03;;;;;;;9.63;3.13;;;16.10;61.00;;;;;;5007823;28;20071;-46
2024/03/26 09:55:31;;;;;;;9.25;3.35;;;16.10;61.50;;;;;;5008107;28;20106;-44
2024/03/26 09:57:57;;;;;;;10.02;2.55;;;16.30;62.00;;;;;;5008228;28;20106;-48
2024/03/26 10:00:25;;;;;;;8.90;2.58;;;16.10;62.40;;;;;;5007460;28;20121;-45
2024/03/26 10:02:56;;;;;;;9.65;2.75;;;16.20;62.90;;;;;;5007765;28;20098;-46
2024/03/26 10:05:24;;;;;;;8.20;2.55;;;16.20;63.10;;;;;;5008705;28;20110;-46
2024/03/26 10:07:50;;;;;;;9.23;2.83;;;16.10;63.40;;;;;;5009209;28;20145;-50
2024/03/26 10:10:17;;;;;;;12.45;3.03;;;16.00;63.70;;;;;;5007378;28;20532;-46
2024/03/26 10:12:44;;;;;;;10.45;2.60;;;15.90;64.30;;;;;;5005810;28;20082;-52
2024/03/26 10:15:10;;;;;;;14.15;3.03;;;15.80;64.60;;;;;;5007153;28;20516;-47
2024/03/26 10:17:37;;;;;;;13.15;2.78;;;15.80;65.10;;;;;;5007588;28;20157;-45
2024/03/26 10:20:05;;;;;;;11.88;2.70;;;15.80;65.20;;;;;;5009070;28;20070;-50
2024/03/26 10:22:31;;;;;;;12.63;3.03;;;15.70;65.30;;;;;;5007316;28;20070;-44
2024/03/26 10:24:58;;;;;;;13.35;3.05;;;15.60;65.60;;;;;;5004349;28;20083;-55
2024/03/26 10:27:24;;;;;;;13.25;3.22;;;15.60;65.90;;;;;;5007952;28;20070;-46
2024/03/26 10:29:55;;;;;;;17.70;3.38;;;15.70;66.20;;;;;;5008990;28;20105;-44
2024/03/26 10:32:23;;;;;;;9.55;2.92;;;15.70;65.80;;;;;;5007969;28;20166;-43
2024/03/26 10:35:03;;;;;;;12.00;3.10;;;15.70;65.90;;;;;;5006999;28;20078;-46
2024/03/26 10:37:32;;;;;;;13.20;3.33;;;15.70;66.00;;;;;;5006894;28;20102;-45
2024/03/26 10:40:08;;;;;;;12.55;2.90;;;15.60;66.00;;;;;;5005627;28;20083;-45
2024/03/26 10:42:47;;;;;;;10.68;2.85;;;15.70;66.20;;;;;;5008091;28;20538;-47
2024/03/26 10:45:16;;;;;;;12.85;3.50;;;15.60;67.00;;;;;;5008565;28;20070;-50
2024/03/26 10:47:44;;;;;;;13.00;3.55;;;15.60;66.50;;;;;;4990130;28;20531;-47
2024/03/26 10:50:12;;;;;;;12.60;3.55;;;15.60;66.70;;;;;;5007627;28;20094;-45
2024/03/26 10:52:40;;;;;;;45.60;19.23;;;15.60;66.30;;;;;;5005580;28;20097;-47
2024/03/26 10:55:09;;;;;;;8.68;2.92;;;15.60;66.20;;;;;;5007819;28;20079;-48
2024/03/26 10:57:36;;;;;;;11.73;3.17;;;15.40;66.60;;;;;;4990219;28;20110;-46
2024/03/26 11:00:15;;;;;;;9.75;3.45;;;15.40;66.70;;;;;;4990885;28;20520;-48
2024/03/26 11:02:52;;;;;;;21.85;3.70;;;15.20;67.40;;;;;;5008242;28;20132;-50
2024/03/26 11:05:19;;;;;;;12.73;3.40;;;14.90;68.10;;;;;;5006756;28;20416;-46
2024/03/26 11:07:48;;;;;;;8.93;2.63;;;15.00;69.10;;;;;;5005517;28;20067;-47
2024/03/26 11:10:16;;;;;;;13.13;3.40;;;15.00;69.70;;;;;;5006706;28;20070;-46
2024/03/26 11:12:47;;;;;;;15.10;3.08;;;15.10;69.30;;;;;;4988392;28;20084;-48
2024/03/26 11:15:28;;;;;;;11.32;3.35;;;15.20;68.90;;;;;;5007635;28;20075;-46
2024/03/26 11:18:00;;;;;;;13.52;3.95;;;15.00;68.40;;;;;;5005860;28;20145;-45
2024/03/26 11:20:28;;;;;;;15.40;4.80;;;15.00;68.10;;;;;;5004852;28;20124;-47
2024/03/26 11:23:05;;;;;;;16.17;5.68;;;14.90;67.30;;;;;;5007901;28;20106;-48
2024/03/26 11:25:33;;;;;;;16.48;4.80;;;14.90;67.00;;;;;;5007369;28;20174;-49
2024/03/26 11:28:01;;;;;;;23.00;6.68;;;15.10;67.00;;;;;;5007371;28;20161;-49
2024/03/26 11:30:30;;;;;;;20.40;6.28;;;15.00;66.50;;;;;;5006227;28;20078;-50
2024/03/26 11:33:01;;;;;;;27.02;6.97;;;15.10;67.40;;;;;;5008170;28;20161;-54
2024/03/26 11:35:29;;;;;;;23.15;7.35;;;15.10;66.30;;;;;;5008186;28;20121;-46
2024/03/26 11:37:57;;;;;;;26.55;7.43;;;15.20;65.70;;;;;;5003333;28;20126;-46
2024/03/26 11:40:25;;;;;;;32.55;7.50;;;15.20;66.20;;;;;;5007308;28;20077;-47
2024/03/26 11:42:54;;;;;;;30.17;7.13;;;15.00;66.40;;;;;;5007306;28;20451;-45
2024/03/26 11:45:21;;;;;;;24.92;7.72;;;14.80;67.00;;;;;;5007727;28;20082;-47
2024/03/26 11:47:48;;;;;;;33.63;10.95;;;14.70;67.10;;;;;;5005265;28;20082;-47
2024/03/26 11:50:14;;;;;;;44.20;13.52;;;14.60;66.70;;;;;;5008276;28;20528;-46
2024/03/26 11:52:41;;;;;;;34.50;12.15;;;14.60;66.20;;;;;;4988451;28;20070;-45
2024/03/26 11:55:08;;;;;;;34.05;13.10;;;14.70;66.30;;;;;;5007156;28;20124;-48
2024/03/26 11:57:39;;;;;;;35.97;12.05;;;14.70;65.60;;;;;;4986780;28;20114;-46
2024/03/26 12:00:07;;;;;;;32.72;10.85;;;14.60;65.80;;;;;;5005192;28;20165;-54
2024/03/26 12:02:35;;;;;;;38.67;13.45;;;14.50;65.70;;;;;;5005826;28;20074;-47
2024/03/26 12:05:03;;;;;;;32.92;12.68;;;14.50;65.60;;;;;;5005870;28;21146;-46
2024/03/26 12:07:33;;;;;;;34.15;11.70;;;14.40;65.30;;;;;;5005902;28;20128;-50
2024/03/26 12:10:00;;;;;;;39.20;11.40;;;14.40;65.30;;;;;;5004762;28;20497;-45
2024/03/26 12:12:27;;;;;;;35.88;11.07;;;14.50;64.90;;;;;;5002113;28;20181;-45
2024/03/26 12:14:55;;;;;;;33.53;12.35;;;14.40;64.40;;;;;;5005163;28;20471;-45
2024/03/26 12:17:22;;;;;;;49.00;13.43;;;14.40;64.90;;;;;;5006853;28;20106;-51
2024/03/26 12:19:50;;;;;;;36.97;11.95;;;14.20;64.90;;;;;;5006446;28;20086;-49
2024/03/26 12:22:19;;;;;;;39.15;12.45;;;14.10;65.30;;;;;;5007021;28;20081;-45
2024/03/26 12:24:50;;;;;;;40.90;13.15;;;14.10;65.60;;;;;;5005627;28;20086;-45
2024/03/26 12:27:16;;;;;;;35.85;13.15;;;14.10;65.60;;;;;;5006877;28;20082;-51
2024/03/26 12:29:44;;;;;;;31.88;11.75;;;14.10;65.70;;;;;;5005675;28;20087;-45
2024/03/26 12:32:11;;;;;;;47.95;12.63;;;14.20;65.40;;;;;;5006927;28;20082;-46
2024/03/26 12:34:38;;;;;;;38.85;12.80;;;14.30;66.00;;;;;;5004626;28;20338;-46
2024/03/26 12:37:05;;;;;;;33.72;11.05;;;14.40;66.10;;;;;;4989217;28;20105;-46